Kumlinge, Finland

12:40 PM EEST on July 07, 2015 (GMT +0300)
Mariehamn | | Change Station
CLOSE
Current Station
Airport
Location: Mariehamn,
Elevation: 20 ft
Nearby Weather Stations

Elev 20 ft 60.12 °N, 19.90 °E | Updated 20 minutes ago

Overcast
Overcast
63 °F
Feels Like 63 °F
N
13
Wind Variable Wind from WSW

Today
High -- | Low -- °F
--% Chance of Precip.
Yesterday
High -- | Low -- °F
Precip. -- in
4:23 AM 10:59 PM
Waning Gibbous, 66% visible
Pressure 29.44 in
Visibility 6.2 miles
Clouds Overcast 2600 ft
Dew Point 54 °F
Humidity 72%
Rainfall 0.00 in
Snow Depth Not available.
UV 2 out of 12
Pollen Not available.
Air Quality Not available.
Flu Activity Not available.
METAR EFMA 070920Z 24011KT 210V280 9999 OVC026 17/12 Q0997

More Conditions Fewer Conditions

Pressure 29.44 in
Visibility 6.2 miles
Clouds Overcast 2600 ft
Dew Point 54 °F
Humidity 72%
Rainfall 0.00 in
Snow Depth Not available.
UV 2 out of 12
Pollen Not available.
Air Quality Not available.
Flu Activity Not available.
METAR EFMA 070920Z 24011KT 210V280 9999 OVC026 17/12 Q0997

More Conditions Fewer Conditions

10-Day Weather Forecast

×

Almanac

Astronomy

Jul. 07, 2015 Rise Set
Actual Time
Civil Twilight
Nautical Twilight
Astronomical Twilight
Moon
Length of Visible Light
Length of Day
Tomorrow will be .
, % of the Moon is Illuminated

Today's Extremes

Country Highs Country Lows

Community

WunderPhotos

Upload Photos

1,835,758 photos uploaded!

WunderBlogs® & News

Nearby

Air Quality

  Air Quality AQ Index Pollutant
Not available.

Snow Depth

Station Depth Elevation

Earthquake Activity

City Distance Mag. Time & Date
Minimum magnitude displayed is 2.5.

Coastal Water Temperatures

Place Temperature

Stations

Nearby Weather Stations

Station Location Temp. Windchill Dew Point Humidity Wind Precip. Elev Updated Type